sensor_id;sensor_type;location;lat;lon;timestamp;P1;durP1;ratioP1;P2;durP2;ratioP2
47481;SDS011;33219;47.410;9.730;2023-07-13T00:02:00;9.38;;;5.40;;
47481;SDS011;33219;47.410;9.730;2023-07-13T00:04:27;7.35;;;5.25;;
47481;SDS011;33219;47.410;9.730;2023-07-13T00:06:55;7.90;;;5.10;;
47481;SDS011;33219;47.410;9.730;2023-07-13T00:09:23;6.97;;;5.45;;
47481;SDS011;33219;47.410;9.730;2023-07-13T00:11:51;6.92;;;5.08;;
47481;SDS011;33219;47.410;9.730;2023-07-13T00:14:20;8.75;;;5.67;;
47481;SDS011;33219;47.410;9.730;2023-07-13T00:16:48;7.95;;;5.08;;
47481;SDS011;33219;47.410;9.730;2023-07-13T00:19:16;7.87;;;5.10;;
47481;SDS011;33219;47.410;9.730;2023-07-13T00:21:44;7.05;;;5.20;;
47481;SDS011;33219;47.410;9.730;2023-07-13T00:24:14;7.03;;;4.80;;
47481;SDS011;33219;47.410;9.730;2023-07-13T00:26:43;8.05;;;5.42;;
47481;SDS011;33219;47.410;9.730;2023-07-13T00:29:12;6.62;;;5.03;;
47481;SDS011;33219;47.410;9.730;2023-07-13T00:31:40;6.80;;;5.30;;
47481;SDS011;33219;47.410;9.730;2023-07-13T00:34:07;8.95;;;6.10;;
47481;SDS011;33219;47.410;9.730;2023-07-13T00:36:35;8.25;;;5.72;;
47481;SDS011;33219;47.410;9.730;2023-07-13T00:39:03;10.18;;;5.83;;
47481;SDS011;33219;47.410;9.730;2023-07-13T00:41:31;6.85;;;5.80;;
47481;SDS011;33219;47.410;9.730;2023-07-13T00:43:59;8.78;;;5.17;;
47481;SDS011;33219;47.410;9.730;2023-07-13T00:46:27;7.53;;;5.12;;
47481;SDS011;33219;47.410;9.730;2023-07-13T00:48:57;8.55;;;6.08;;
47481;SDS011;33219;47.410;9.730;2023-07-13T00:51:30;7.00;;;5.03;;
47481;SDS011;33219;47.410;9.730;2023-07-13T00:54:03;7.53;;;4.70;;
47481;SDS011;33219;47.410;9.730;2023-07-13T00:56:31;6.55;;;4.67;;
47481;SDS011;33219;47.410;9.730;2023-07-13T00:59:01;7.33;;;4.37;;
47481;SDS011;33219;47.410;9.730;2023-07-13T01:01:31;7.45;;;4.37;;
47481;SDS011;33219;47.410;9.730;2023-07-13T01:03:59;6.62;;;3.77;;
47481;SDS011;33219;47.410;9.730;2023-07-13T01:06:26;6.80;;;4.20;;
47481;SDS011;33219;47.410;9.730;2023-07-13T01:08:54;7.05;;;3.90;;
47481;SDS011;33219;47.410;9.730;2023-07-13T01:11:24;6.15;;;4.25;;
47481;SDS011;33219;47.410;9.730;2023-07-13T01:13:53;6.35;;;4.10;;
47481;SDS011;33219;47.410;9.730;2023-07-13T01:16:23;6.83;;;4.50;;
47481;SDS011;33219;47.410;9.730;2023-07-13T01:18:54;6.78;;;4.12;;
47481;SDS011;33219;47.410;9.730;2023-07-13T01:21:27;6.65;;;3.85;;
47481;SDS011;33219;47.410;9.730;2023-07-13T01:23:55;5.90;;;4.17;;
47481;SDS011;33219;47.410;9.730;2023-07-13T01:26:23;5.08;;;3.75;;
47481;SDS011;33219;47.410;9.730;2023-07-13T01:28:51;5.37;;;3.70;;
47481;SDS011;33219;47.410;9.730;2023-07-13T01:31:19;6.47;;;3.92;;
47481;SDS011;33219;47.410;9.730;2023-07-13T01:33:46;5.53;;;3.83;;
47481;SDS011;33219;47.410;9.730;2023-07-13T01:36:14;4.42;;;3.20;;
47481;SDS011;33219;47.410;9.730;2023-07-13T01:41:42;5.25;;;3.70;;
47481;SDS011;33219;47.410;9.730;2023-07-13T01:44:10;4.97;;;3.22;;
47481;SDS011;33219;47.410;9.730;2023-07-13T01:46:37;4.40;;;3.60;;
47481;SDS011;33219;47.410;9.730;2023-07-13T01:49:05;6.10;;;3.98;;
47481;SDS011;33219;47.410;9.730;2023-07-13T01:51:33;4.72;;;3.45;;
47481;SDS011;33219;47.410;9.730;2023-07-13T01:54:00;5.35;;;4.00;;
47481;SDS011;33219;47.410;9.730;2023-07-13T01:56:28;5.40;;;3.83;;
47481;SDS011;33219;47.410;9.730;2023-07-13T01:58:55;8.05;;;4.28;;
47481;SDS011;33219;47.410;9.730;2023-07-13T02:01:23;5.85;;;4.08;;
47481;SDS011;33219;47.410;9.730;2023-07-13T02:03:50;6.92;;;4.25;;
47481;SDS011;33219;47.410;9.730;2023-07-13T02:06:18;5.72;;;3.87;;
47481;SDS011;33219;47.410;9.730;2023-07-13T02:08:45;5.35;;;3.55;;
47481;SDS011;33219;47.410;9.730;2023-07-13T02:11:13;6.45;;;3.90;;
47481;SDS011;33219;47.410;9.730;2023-07-13T02:13:41;5.00;;;3.42;;
47481;SDS011;33219;47.410;9.730;2023-07-13T02:16:08;6.33;;;3.67;;
47481;SDS011;33219;47.410;9.730;2023-07-13T02:18:36;5.78;;;3.50;;
47481;SDS011;33219;47.410;9.730;2023-07-13T02:21:04;5.40;;;3.22;;
47481;SDS011;33219;47.410;9.730;2023-07-13T02:23:31;6.50;;;3.40;;
47481;SDS011;33219;47.410;9.730;2023-07-13T02:25:59;4.42;;;3.05;;
47481;SDS011;33219;47.410;9.730;2023-07-13T02:28:28;4.90;;;3.70;;
47481;SDS011;33219;47.410;9.730;2023-07-13T02:31:03;5.22;;;3.70;;
47481;SDS011;33219;47.410;9.730;2023-07-13T02:33:26;5.45;;;3.92;;
47481;SDS011;33219;47.410;9.730;2023-07-13T02:35:54;5.85;;;3.80;;
47481;SDS011;33219;47.410;9.730;2023-07-13T02:38:22;5.95;;;3.72;;
47481;SDS011;33219;47.410;9.730;2023-07-13T02:40:49;5.75;;;3.37;;
47481;SDS011;33219;47.410;9.730;2023-07-13T02:43:17;6.00;;;3.50;;
47481;SDS011;33219;47.410;9.730;2023-07-13T02:45:45;6.33;;;4.00;;
47481;SDS011;33219;47.410;9.730;2023-07-13T02:48:13;7.12;;;4.33;;
47481;SDS011;33219;47.410;9.730;2023-07-13T02:50:43;5.85;;;4.00;;
47481;SDS011;33219;47.410;9.730;2023-07-13T02:53:11;6.30;;;3.37;;
47481;SDS011;33219;47.410;9.730;2023-07-13T02:55:39;7.35;;;4.58;;
47481;SDS011;33219;47.410;9.730;2023-07-13T02:58:06;6.53;;;4.20;;
47481;SDS011;33219;47.410;9.730;2023-07-13T03:00:34;6.28;;;4.45;;
47481;SDS011;33219;47.410;9.730;2023-07-13T03:03:06;6.37;;;4.40;;
47481;SDS011;33219;47.410;9.730;2023-07-13T03:05:33;8.60;;;5.22;;
47481;SDS011;33219;47.410;9.730;2023-07-13T03:08:01;9.23;;;5.10;;
47481;SDS011;33219;47.410;9.730;2023-07-13T03:10:29;9.03;;;5.97;;
47481;SDS011;33219;47.410;9.730;2023-07-13T03:12:57;7.40;;;4.70;;
47481;SDS011;33219;47.410;9.730;2023-07-13T03:15:24;10.50;;;5.67;;
47481;SDS011;33219;47.410;9.730;2023-07-13T03:17:53;6.53;;;4.58;;
47481;SDS011;33219;47.410;9.730;2023-07-13T03:20:20;8.35;;;4.58;;
47481;SDS011;33219;47.410;9.730;2023-07-13T03:22:48;6.53;;;3.80;;
47481;SDS011;33219;47.410;9.730;2023-07-13T03:25:16;7.25;;;4.00;;
47481;SDS011;33219;47.410;9.730;2023-07-13T03:27:43;7.72;;;3.75;;
47481;SDS011;33219;47.410;9.730;2023-07-13T03:30:11;6.12;;;3.77;;
47481;SDS011;33219;47.410;9.730;2023-07-13T03:32:39;5.00;;;3.42;;
47481;SDS011;33219;47.410;9.730;2023-07-13T03:35:08;5.45;;;3.67;;
47481;SDS011;33219;47.410;9.730;2023-07-13T03:37:35;8.80;;;3.75;;
47481;SDS011;33219;47.410;9.730;2023-07-13T03:40:05;4.67;;;3.25;;
47481;SDS011;33219;47.410;9.730;2023-07-13T03:42:34;4.60;;;3.30;;
47481;SDS011;33219;47.410;9.730;2023-07-13T03:45:02;4.37;;;3.10;;
47481;SDS011;33219;47.410;9.730;2023-07-13T03:47:30;5.87;;;3.10;;
47481;SDS011;33219;47.410;9.730;2023-07-13T03:49:58;5.50;;;3.77;;
47481;SDS011;33219;47.410;9.730;2023-07-13T03:52:26;5.12;;;3.85;;
47481;SDS011;33219;47.410;9.730;2023-07-13T03:54:54;5.28;;;3.80;;
47481;SDS011;33219;47.410;9.730;2023-07-13T03:57:21;5.17;;;3.12;;
47481;SDS011;33219;47.410;9.730;2023-07-13T03:59:49;6.00;;;3.40;;
47481;SDS011;33219;47.410;9.730;2023-07-13T04:02:16;4.75;;;3.80;;
47481;SDS011;33219;47.410;9.730;2023-07-13T04:04:44;6.55;;;3.72;;
47481;SDS011;33219;47.410;9.730;2023-07-13T04:07:12;7.58;;;4.10;;
47481;SDS011;33219;47.410;9.730;2023-07-13T04:09:39;7.53;;;4.12;;
47481;SDS011;33219;47.410;9.730;2023-07-13T04:12:07;6.03;;;3.87;;
47481;SDS011;33219;47.410;9.730;2023-07-13T04:14:35;5.67;;;4.15;;
47481;SDS011;33219;47.410;9.730;2023-07-13T04:17:02;7.15;;;4.10;;
47481;SDS011;33219;47.410;9.730;2023-07-13T04:19:30;6.33;;;4.20;;
47481;SDS011;33219;47.410;9.730;2023-07-13T04:21:58;9.13;;;5.15;;
47481;SDS011;33219;47.410;9.730;2023-07-13T04:24:25;7.58;;;4.40;;
47481;SDS011;33219;47.410;9.730;2023-07-13T04:26:53;7.20;;;4.22;;
47481;SDS011;33219;47.410;9.730;2023-07-13T04:29:22;6.78;;;4.10;;
47481;SDS011;33219;47.410;9.730;2023-07-13T04:31:49;8.00;;;4.40;;
47481;SDS011;33219;47.410;9.730;2023-07-13T04:34:17;7.00;;;5.10;;
47481;SDS011;33219;47.410;9.730;2023-07-13T04:36:45;8.78;;;4.97;;
47481;SDS011;33219;47.410;9.730;2023-07-13T04:39:12;9.03;;;4.60;;
47481;SDS011;33219;47.410;9.730;2023-07-13T04:41:40;5.90;;;4.05;;
47481;SDS011;33219;47.410;9.730;2023-07-13T04:44:07;9.35;;;5.97;;
47481;SDS011;33219;47.410;9.730;2023-07-13T04:46:35;7.95;;;4.53;;
47481;SDS011;33219;47.410;9.730;2023-07-13T04:49:03;6.92;;;4.47;;
47481;SDS011;33219;47.410;9.730;2023-07-13T04:51:31;7.67;;;5.50;;
47481;SDS011;33219;47.410;9.730;2023-07-13T04:53:58;6.37;;;4.25;;
47481;SDS011;33219;47.410;9.730;2023-07-13T04:56:26;7.87;;;4.45;;
47481;SDS011;33219;47.410;9.730;2023-07-13T04:58:53;8.70;;;4.62;;
47481;SDS011;33219;47.410;9.730;2023-07-13T05:01:21;6.87;;;4.95;;
47481;SDS011;33219;47.410;9.730;2023-07-13T05:03:49;7.75;;;5.35;;
47481;SDS011;33219;47.410;9.730;2023-07-13T05:06:16;7.17;;;5.33;;
47481;SDS011;33219;47.410;9.730;2023-07-13T05:08:44;8.83;;;5.40;;
47481;SDS011;33219;47.410;9.730;2023-07-13T05:11:11;9.75;;;6.05;;
47481;SDS011;33219;47.410;9.730;2023-07-13T05:13:39;9.15;;;6.92;;
47481;SDS011;33219;47.410;9.730;2023-07-13T05:16:06;6.65;;;5.22;;
47481;SDS011;33219;47.410;9.730;2023-07-13T05:18:34;8.85;;;5.20;;
47481;SDS011;33219;47.410;9.730;2023-07-13T05:21:03;8.08;;;5.00;;
47481;SDS011;33219;47.410;9.730;2023-07-13T05:23:34;8.23;;;5.40;;
47481;SDS011;33219;47.410;9.730;2023-07-13T05:26:03;7.45;;;5.08;;
47481;SDS011;33219;47.410;9.730;2023-07-13T05:28:31;6.95;;;5.25;;
47481;SDS011;33219;47.410;9.730;2023-07-13T05:30:58;7.12;;;4.97;;
47481;SDS011;33219;47.410;9.730;2023-07-13T05:33:26;6.67;;;4.20;;
47481;SDS011;33219;47.410;9.730;2023-07-13T05:35:54;10.70;;;5.15;;
47481;SDS011;33219;47.410;9.730;2023-07-13T05:38:22;6.00;;;4.75;;
47481;SDS011;33219;47.410;9.730;2023-07-13T05:40:49;7.47;;;5.08;;
47481;SDS011;33219;47.410;9.730;2023-07-13T05:43:17;9.38;;;5.00;;
47481;SDS011;33219;47.410;9.730;2023-07-13T05:45:45;8.45;;;5.28;;
47481;SDS011;33219;47.410;9.730;2023-07-13T05:48:12;7.12;;;5.05;;
47481;SDS011;33219;47.410;9.730;2023-07-13T05:50:40;8.08;;;4.78;;
47481;SDS011;33219;47.410;9.730;2023-07-13T05:53:08;6.42;;;4.85;;
47481;SDS011;33219;47.410;9.730;2023-07-13T05:55:35;6.35;;;4.50;;
47481;SDS011;33219;47.410;9.730;2023-07-13T05:58:04;7.62;;;4.70;;
47481;SDS011;33219;47.410;9.730;2023-07-13T06:00:32;7.05;;;4.50;;
47481;SDS011;33219;47.410;9.730;2023-07-13T06:02:59;6.67;;;5.10;;
47481;SDS011;33219;47.410;9.730;2023-07-13T06:05:27;6.40;;;4.72;;
47481;SDS011;33219;47.410;9.730;2023-07-13T06:07:54;6.62;;;4.65;;
47481;SDS011;33219;47.410;9.730;2023-07-13T06:10:22;8.75;;;5.00;;
47481;SDS011;33219;47.410;9.730;2023-07-13T06:12:50;7.40;;;4.80;;
47481;SDS011;33219;47.410;9.730;2023-07-13T06:15:17;7.40;;;4.35;;
47481;SDS011;33219;47.410;9.730;2023-07-13T06:17:45;8.05;;;4.72;;
47481;SDS011;33219;47.410;9.730;2023-07-13T06:20:12;7.90;;;4.35;;
47481;SDS011;33219;47.410;9.730;2023-07-13T06:22:40;6.37;;;5.22;;
47481;SDS011;33219;47.410;9.730;2023-07-13T06:25:08;7.58;;;5.42;;
47481;SDS011;33219;47.410;9.730;2023-07-13T06:27:36;7.90;;;6.08;;
47481;SDS011;33219;47.410;9.730;2023-07-13T06:30:04;11.60;;;6.92;;
47481;SDS011;33219;47.410;9.730;2023-07-13T06:32:32;9.93;;;6.33;;
47481;SDS011;33219;47.410;9.730;2023-07-13T06:35:00;7.62;;;5.67;;
47481;SDS011;33219;47.410;9.730;2023-07-13T06:37:27;10.18;;;5.85;;
47481;SDS011;33219;47.410;9.730;2023-07-13T06:39:55;7.75;;;5.40;;
47481;SDS011;33219;47.410;9.730;2023-07-13T06:42:22;7.72;;;5.00;;
47481;SDS011;33219;47.410;9.730;2023-07-13T06:44:50;8.20;;;5.12;;
47481;SDS011;33219;47.410;9.730;2023-07-13T06:47:17;8.60;;;5.53;;
47481;SDS011;33219;47.410;9.730;2023-07-13T06:49:45;10.78;;;5.80;;
47481;SDS011;33219;47.410;9.730;2023-07-13T06:52:13;7.95;;;5.50;;
47481;SDS011;33219;47.410;9.730;2023-07-13T06:54:40;9.70;;;5.87;;
47481;SDS011;33219;47.410;9.730;2023-07-13T06:57:08;6.83;;;5.25;;
47481;SDS011;33219;47.410;9.730;2023-07-13T07:02:10;8.25;;;5.95;;
47481;SDS011;33219;47.410;9.730;2023-07-13T07:04:37;7.53;;;4.97;;
47481;SDS011;33219;47.410;9.730;2023-07-13T07:07:05;8.05;;;4.97;;
47481;SDS011;33219;47.410;9.730;2023-07-13T07:09:32;6.67;;;4.75;;
47481;SDS011;33219;47.410;9.730;2023-07-13T07:12:00;8.08;;;4.50;;
47481;SDS011;33219;47.410;9.730;2023-07-13T07:14:29;8.13;;;5.20;;
47481;SDS011;33219;47.410;9.730;2023-07-13T07:16:56;8.78;;;5.20;;
47481;SDS011;33219;47.410;9.730;2023-07-13T07:19:24;9.08;;;5.67;;
47481;SDS011;33219;47.410;9.730;2023-07-13T07:21:52;8.18;;;5.47;;
47481;SDS011;33219;47.410;9.730;2023-07-13T07:24:19;9.43;;;6.37;;
47481;SDS011;33219;47.410;9.730;2023-07-13T07:26:47;9.55;;;6.83;;
47481;SDS011;33219;47.410;9.730;2023-07-13T07:29:15;10.15;;;7.90;;
47481;SDS011;33219;47.410;9.730;2023-07-13T07:31:42;10.32;;;7.95;;
47481;SDS011;33219;47.410;9.730;2023-07-13T07:34:10;11.25;;;8.13;;
47481;SDS011;33219;47.410;9.730;2023-07-13T07:36:37;6.65;;;5.50;;
47481;SDS011;33219;47.410;9.730;2023-07-13T07:39:05;10.00;;;6.12;;
47481;SDS011;33219;47.410;9.730;2023-07-13T07:41:32;9.28;;;5.25;;
47481;SDS011;33219;47.410;9.730;2023-07-13T07:44:00;8.55;;;5.78;;
47481;SDS011;33219;47.410;9.730;2023-07-13T07:46:29;10.10;;;6.30;;
47481;SDS011;33219;47.410;9.730;2023-07-13T07:48:56;11.78;;;6.87;;
47481;SDS011;33219;47.410;9.730;2023-07-13T07:51:24;11.20;;;6.40;;
47481;SDS011;33219;47.410;9.730;2023-07-13T07:53:52;11.12;;;6.83;;
47481;SDS011;33219;47.410;9.730;2023-07-13T07:56:20;11.38;;;7.45;;
47481;SDS011;33219;47.410;9.730;2023-07-13T07:58:48;15.70;;;8.00;;
47481;SDS011;33219;47.410;9.730;2023-07-13T08:01:15;16.85;;;7.70;;
47481;SDS011;33219;47.410;9.730;2023-07-13T08:03:43;13.53;;;7.20;;
47481;SDS011;33219;47.410;9.730;2023-07-13T08:06:10;13.90;;;8.08;;
47481;SDS011;33219;47.410;9.730;2023-07-13T08:08:39;15.32;;;9.00;;
47481;SDS011;33219;47.410;9.730;2023-07-13T08:11:07;9.10;;;6.60;;
47481;SDS011;33219;47.410;9.730;2023-07-13T08:13:36;8.68;;;6.35;;
47481;SDS011;33219;47.410;9.730;2023-07-13T08:16:04;6.78;;;4.90;;
47481;SDS011;33219;47.410;9.730;2023-07-13T08:18:33;8.60;;;5.08;;
47481;SDS011;33219;47.410;9.730;2023-07-13T08:21:09;8.58;;;4.10;;
47481;SDS011;33219;47.410;9.730;2023-07-13T08:23:33;8.98;;;4.60;;
47481;SDS011;33219;47.410;9.730;2023-07-13T08:26:01;6.55;;;4.10;;
47481;SDS011;33219;47.410;9.730;2023-07-13T08:28:30;5.80;;;4.53;;
47481;SDS011;33219;47.410;9.730;2023-07-13T08:31:02;7.90;;;4.33;;
47481;SDS011;33219;47.410;9.730;2023-07-13T08:33:31;6.97;;;4.03;;
47481;SDS011;33219;47.410;9.730;2023-07-13T08:35:59;7.20;;;4.30;;
47481;SDS011;33219;47.410;9.730;2023-07-13T08:38:26;6.83;;;4.35;;
47481;SDS011;33219;47.410;9.730;2023-07-13T08:40:55;5.75;;;4.10;;
47481;SDS011;33219;47.410;9.730;2023-07-13T08:43:28;6.75;;;4.70;;
47481;SDS011;33219;47.410;9.730;2023-07-13T08:46:01;8.13;;;4.28;;
47481;SDS011;33219;47.410;9.730;2023-07-13T08:48:46;5.62;;;3.95;;
47481;SDS011;33219;47.410;9.730;2023-07-13T08:53:55;5.95;;;3.70;;
47481;SDS011;33219;47.410;9.730;2023-07-13T08:56:28;6.35;;;4.20;;
47481;SDS011;33219;47.410;9.730;2023-07-13T08:58:58;4.35;;;3.10;;
47481;SDS011;33219;47.410;9.730;2023-07-13T09:01:56;5.58;;;2.85;;
47481;SDS011;33219;47.410;9.730;2023-07-13T09:04:30;6.20;;;3.35;;
47481;SDS011;33219;47.410;9.730;2023-07-13T09:07:02;4.72;;;3.02;;
47481;SDS011;33219;47.410;9.730;2023-07-13T09:18:03;7.83;;;3.20;;
47481;SDS011;33219;47.410;9.730;2023-07-13T09:20:31;4.60;;;2.83;;
47481;SDS011;33219;47.410;9.730;2023-07-13T09:23:04;5.85;;;3.10;;
47481;SDS011;33219;47.410;9.730;2023-07-13T09:25:33;5.65;;;3.20;;
47481;SDS011;33219;47.410;9.730;2023-07-13T09:28:08;5.22;;;3.47;;
47481;SDS011;33219;47.410;9.730;2023-07-13T09:30:45;9.95;;;3.72;;
47481;SDS011;33219;47.410;9.730;2023-07-13T09:33:26;5.95;;;3.45;;
47481;SDS011;33219;47.410;9.730;2023-07-13T09:35:56;5.03;;;3.00;;
47481;SDS011;33219;47.410;9.730;2023-07-13T09:38:28;5.15;;;3.35;;
47481;SDS011;33219;47.410;9.730;2023-07-13T09:43:39;7.65;;;3.33;;
47481;SDS011;33219;47.410;9.730;2023-07-13T09:46:26;6.45;;;3.45;;
47481;SDS011;33219;47.410;9.730;2023-07-13T09:48:54;10.70;;;3.50;;
47481;SDS011;33219;47.410;9.730;2023-07-13T09:51:23;7.30;;;4.00;;
47481;SDS011;33219;47.410;9.730;2023-07-13T09:53:50;5.28;;;3.50;;
47481;SDS011;33219;47.410;9.730;2023-07-13T09:56:21;6.37;;;3.08;;
47481;SDS011;33219;47.410;9.730;2023-07-13T09:58:51;6.70;;;3.05;;
47481;SDS011;33219;47.410;9.730;2023-07-13T10:01:35;5.78;;;3.25;;
47481;SDS011;33219;47.410;9.730;2023-07-13T10:04:13;6.15;;;3.75;;
47481;SDS011;33219;47.410;9.730;2023-07-13T10:06:46;6.58;;;2.92;;
47481;SDS011;33219;47.410;9.730;2023-07-13T10:09:17;5.20;;;3.15;;
47481;SDS011;33219;47.410;9.730;2023-07-13T10:11:44;5.50;;;2.87;;
47481;SDS011;33219;47.410;9.730;2023-07-13T10:14:20;5.58;;;3.45;;
47481;SDS011;33219;47.410;9.730;2023-07-13T10:19:29;4.67;;;3.00;;
47481;SDS011;33219;47.410;9.730;2023-07-13T10:21:59;6.77;;;3.60;;
47481;SDS011;33219;47.410;9.730;2023-07-13T10:24:30;7.03;;;3.15;;
47481;SDS011;33219;47.410;9.730;2023-07-13T10:27:05;5.40;;;3.52;;
47481;SDS011;33219;47.410;9.730;2023-07-13T10:29:38;5.85;;;3.45;;
47481;SDS011;33219;47.410;9.730;2023-07-13T10:32:17;5.15;;;3.22;;
47481;SDS011;33219;47.410;9.730;2023-07-13T10:34:49;4.33;;;3.12;;
47481;SDS011;33219;47.410;9.730;2023-07-13T10:37:27;6.00;;;3.60;;
47481;SDS011;33219;47.410;9.730;2023-07-13T10:40:20;6.22;;;4.00;;
47481;SDS011;33219;47.410;9.730;2023-07-13T10:42:44;5.40;;;3.52;;
47481;SDS011;33219;47.410;9.730;2023-07-13T10:45:17;6.05;;;3.50;;
47481;SDS011;33219;47.410;9.730;2023-07-13T10:47:46;6.12;;;3.27;;
47481;SDS011;33219;47.410;9.730;2023-07-13T10:50:17;6.03;;;3.25;;
47481;SDS011;33219;47.410;9.730;2023-07-13T10:52:46;5.53;;;2.90;;
47481;SDS011;33219;47.410;9.730;2023-07-13T10:55:36;4.72;;;3.20;;
47481;SDS011;33219;47.410;9.730;2023-07-13T10:58:14;5.25;;;3.10;;
47481;SDS011;33219;47.410;9.730;2023-07-13T11:00:44;6.58;;;3.37;;
47481;SDS011;33219;47.410;9.730;2023-07-13T11:03:16;7.12;;;3.30;;
47481;SDS011;33219;47.410;9.730;2023-07-13T11:05:50;4.55;;;3.17;;
47481;SDS011;33219;47.410;9.730;2023-07-13T11:08:33;4.97;;;2.83;;
47481;SDS011;33219;47.410;9.730;2023-07-13T11:11:03;4.70;;;3.00;;
47481;SDS011;33219;47.410;9.730;2023-07-13T11:16:12;5.83;;;3.30;;
47481;SDS011;33219;47.410;9.730;2023-07-13T11:18:45;4.28;;;2.60;;
47481;SDS011;33219;47.410;9.730;2023-07-13T11:21:32;3.47;;;2.50;;
47481;SDS011;33219;47.410;9.730;2023-07-13T11:24:14;4.45;;;2.30;;
47481;SDS011;33219;47.410;9.730;2023-07-13T11:29:27;3.87;;;2.60;;
47481;SDS011;33219;47.410;9.730;2023-07-13T11:32:21;5.97;;;2.80;;
47481;SDS011;33219;47.410;9.730;2023-07-13T11:34:36;3.50;;;2.50;;
47481;SDS011;33219;47.410;9.730;2023-07-13T11:37:10;5.22;;;3.20;;
47481;SDS011;33219;47.410;9.730;2023-07-13T11:39:40;3.90;;;2.55;;
47481;SDS011;33219;47.410;9.730;2023-07-13T11:42:12;5.90;;;2.80;;
47481;SDS011;33219;47.410;9.730;2023-07-13T11:44:50;4.83;;;2.72;;
47481;SDS011;33219;47.410;9.730;2023-07-13T11:47:21;5.58;;;2.90;;
47481;SDS011;33219;47.410;9.730;2023-07-13T11:49:48;5.40;;;2.87;;
47481;SDS011;33219;47.410;9.730;2023-07-13T11:52:23;6.15;;;3.22;;
47481;SDS011;33219;47.410;9.730;2023-07-13T11:54:49;4.95;;;3.05;;
47481;SDS011;33219;47.410;9.730;2023-07-13T11:59:51;5.90;;;2.80;;
47481;SDS011;33219;47.410;9.730;2023-07-13T12:02:27;5.03;;;2.92;;
47481;SDS011;33219;47.410;9.730;2023-07-13T12:04:58;5.22;;;2.90;;
47481;SDS011;33219;47.410;9.730;2023-07-13T12:07:29;3.95;;;3.02;;
47481;SDS011;33219;47.410;9.730;2023-07-13T12:10:02;3.33;;;2.70;;
47481;SDS011;33219;47.410;9.730;2023-07-13T12:12:37;4.30;;;3.02;;
47481;SDS011;33219;47.410;9.730;2023-07-13T12:15:07;4.33;;;2.67;;
47481;SDS011;33219;47.410;9.730;2023-07-13T12:17:35;5.78;;;3.05;;
47481;SDS011;33219;47.410;9.730;2023-07-13T12:20:04;5.55;;;2.80;;
47481;SDS011;33219;47.410;9.730;2023-07-13T12:25:01;4.30;;;2.83;;
47481;SDS011;33219;47.410;9.730;2023-07-13T12:27:30;4.10;;;2.77;;
47481;SDS011;33219;47.410;9.730;2023-07-13T12:30:01;5.03;;;2.60;;
47481;SDS011;33219;47.410;9.730;2023-07-13T12:32:31;4.80;;;2.75;;
47481;SDS011;33219;47.410;9.730;2023-07-13T12:35:12;4.10;;;2.62;;
47481;SDS011;33219;47.410;9.730;2023-07-13T12:37:33;5.10;;;2.80;;
47481;SDS011;33219;47.410;9.730;2023-07-13T12:40:01;4.85;;;2.60;;
47481;SDS011;33219;47.410;9.730;2023-07-13T12:42:32;3.85;;;2.50;;
47481;SDS011;33219;47.410;9.730;2023-07-13T12:45:19;5.62;;;2.62;;
47481;SDS011;33219;47.410;9.730;2023-07-13T12:47:53;3.62;;;2.80;;
47481;SDS011;33219;47.410;9.730;2023-07-13T12:50:17;4.78;;;2.60;;
47481;SDS011;33219;47.410;9.730;2023-07-13T12:52:56;5.10;;;2.50;;
47481;SDS011;33219;47.410;9.730;2023-07-13T12:55:24;4.40;;;3.20;;
47481;SDS011;33219;47.410;9.730;2023-07-13T12:57:53;6.22;;;2.75;;
47481;SDS011;33219;47.410;9.730;2023-07-13T13:00:26;3.40;;;2.35;;
47481;SDS011;33219;47.410;9.730;2023-07-13T13:02:57;4.00;;;2.30;;
47481;SDS011;33219;47.410;9.730;2023-07-13T13:05:28;5.00;;;2.60;;
47481;SDS011;33219;47.410;9.730;2023-07-13T13:07:57;4.25;;;2.47;;
47481;SDS011;33219;47.410;9.730;2023-07-13T13:10:25;3.10;;;2.30;;
47481;SDS011;33219;47.410;9.730;2023-07-13T13:12:52;4.28;;;2.67;;
47481;SDS011;33219;47.410;9.730;2023-07-13T13:15:20;5.05;;;2.20;;
47481;SDS011;33219;47.410;9.730;2023-07-13T13:17:49;4.00;;;2.35;;
47481;SDS011;33219;47.410;9.730;2023-07-13T13:20:18;4.67;;;2.30;;
47481;SDS011;33219;47.410;9.730;2023-07-13T13:22:47;3.55;;;2.50;;
47481;SDS011;33219;47.410;9.730;2023-07-13T13:25:15;4.45;;;3.02;;
47481;SDS011;33219;47.410;9.730;2023-07-13T13:27:43;4.03;;;2.62;;
47481;SDS011;33219;47.410;9.730;2023-07-13T13:30:12;4.40;;;3.00;;
47481;SDS011;33219;47.410;9.730;2023-07-13T13:32:42;2.92;;;2.33;;
47481;SDS011;33219;47.410;9.730;2023-07-13T13:35:14;4.55;;;2.90;;
47481;SDS011;33219;47.410;9.730;2023-07-13T13:37:43;6.45;;;2.70;;
47481;SDS011;33219;47.410;9.730;2023-07-13T13:40:17;4.50;;;2.95;;
47481;SDS011;33219;47.410;9.730;2023-07-13T13:42:46;4.47;;;2.90;;
47481;SDS011;33219;47.410;9.730;2023-07-13T13:45:14;4.35;;;2.55;;
47481;SDS011;33219;47.410;9.730;2023-07-13T13:47:43;3.55;;;2.30;;
47481;SDS011;33219;47.410;9.730;2023-07-13T13:50:12;4.58;;;2.95;;
47481;SDS011;33219;47.410;9.730;2023-07-13T13:52:44;5.40;;;2.75;;
47481;SDS011;33219;47.410;9.730;2023-07-13T13:55:18;5.10;;;2.00;;
47481;SDS011;33219;47.410;9.730;2023-07-13T13:57:47;3.35;;;2.17;;
47481;SDS011;33219;47.410;9.730;2023-07-13T14:00:16;4.35;;;2.27;;
47481;SDS011;33219;47.410;9.730;2023-07-13T14:02:45;3.10;;;2.30;;
47481;SDS011;33219;47.410;9.730;2023-07-13T14:05:18;4.33;;;2.30;;
47481;SDS011;33219;47.410;9.730;2023-07-13T14:07:46;2.90;;;2.20;;
47481;SDS011;33219;47.410;9.730;2023-07-13T14:10:16;4.62;;;2.30;;
47481;SDS011;33219;47.410;9.730;2023-07-13T14:12:46;3.95;;;2.47;;
47481;SDS011;33219;47.410;9.730;2023-07-13T14:15:23;3.62;;;2.50;;
47481;SDS011;33219;47.410;9.730;2023-07-13T14:17:53;3.45;;;2.25;;
47481;SDS011;33219;47.410;9.730;2023-07-13T14:20:21;3.58;;;2.27;;
47481;SDS011;33219;47.410;9.730;2023-07-13T14:22:50;4.35;;;2.40;;
47481;SDS011;33219;47.410;9.730;2023-07-13T14:25:19;3.90;;;2.40;;
47481;SDS011;33219;47.410;9.730;2023-07-13T14:27:49;3.42;;;2.50;;
47481;SDS011;33219;47.410;9.730;2023-07-13T14:30:20;3.80;;;2.60;;
47481;SDS011;33219;47.410;9.730;2023-07-13T14:32:47;4.05;;;2.60;;
47481;SDS011;33219;47.410;9.730;2023-07-13T14:35:16;4.08;;;2.67;;
47481;SDS011;33219;47.410;9.730;2023-07-13T14:37:46;3.37;;;2.40;;
47481;SDS011;33219;47.410;9.730;2023-07-13T14:40:15;4.80;;;2.75;;
47481;SDS011;33219;47.410;9.730;2023-07-13T14:42:45;4.83;;;2.67;;
47481;SDS011;33219;47.410;9.730;2023-07-13T14:45:16;4.30;;;3.02;;
47481;SDS011;33219;47.410;9.730;2023-07-13T14:47:46;5.20;;;2.80;;
47481;SDS011;33219;47.410;9.730;2023-07-13T14:50:14;4.72;;;2.87;;
47481;SDS011;33219;47.410;9.730;2023-07-13T14:52:44;3.52;;;2.75;;
47481;SDS011;33219;47.410;9.730;2023-07-13T14:55:13;3.40;;;2.45;;
47481;SDS011;33219;47.410;9.730;2023-07-13T14:57:43;4.65;;;2.72;;
47481;SDS011;33219;47.410;9.730;2023-07-13T15:00:22;4.72;;;2.70;;
47481;SDS011;33219;47.410;9.730;2023-07-13T15:02:55;5.17;;;2.47;;
47481;SDS011;33219;47.410;9.730;2023-07-13T15:05:21;4.60;;;2.12;;
47481;SDS011;33219;47.410;9.730;2023-07-13T15:07:50;3.08;;;2.00;;
47481;SDS011;33219;47.410;9.730;2023-07-13T15:10:20;2.95;;;1.90;;
47481;SDS011;33219;47.410;9.730;2023-07-13T15:12:52;2.40;;;1.82;;
47481;SDS011;33219;47.410;9.730;2023-07-13T15:15:22;3.30;;;1.82;;
47481;SDS011;33219;47.410;9.730;2023-07-13T15:17:50;2.60;;;1.70;;
47481;SDS011;33219;47.410;9.730;2023-07-13T15:20:23;3.92;;;2.00;;
47481;SDS011;33219;47.410;9.730;2023-07-13T15:22:54;3.25;;;2.20;;
47481;SDS011;33219;47.410;9.730;2023-07-13T15:25:23;4.67;;;2.67;;
47481;SDS011;33219;47.410;9.730;2023-07-13T15:27:53;3.27;;;2.30;;
47481;SDS011;33219;47.410;9.730;2023-07-13T15:30:24;3.37;;;2.10;;
47481;SDS011;33219;47.410;9.730;2023-07-13T15:32:54;3.25;;;2.20;;
47481;SDS011;33219;47.410;9.730;2023-07-13T15:35:28;3.83;;;2.30;;